sensor_id;sensor_type;location;lat;lon;timestamp;pressure;altitude;pressure_sealevel;temperature;humidity
18167;BME280;9208;42.688;23.404;2023-05-16T00:01:32;95197.91;;;15.77;100.00
18167;BME280;9208;42.688;23.404;2023-05-16T00:03:59;95196.03;;;15.61;100.00
18167;BME280;9208;42.688;23.404;2023-05-16T00:06:25;95190.00;;;15.63;100.00
18167;BME280;9208;42.688;23.404;2023-05-16T00:08:51;95176.28;;;15.52;100.00
18167;BME280;9208;42.688;23.404;2023-05-16T00:11:16;95188.50;;;15.62;100.00
18167;BME280;9208;42.688;23.404;2023-05-16T00:13:42;95174.59;;;15.43;100.00
18167;BME280;9208;42.688;23.404;2023-05-16T00:16:08;95180.66;;;15.42;100.00
18167;BME280;9208;42.688;23.404;2023-05-16T00:18:34;95175.16;;;15.36;100.00
18167;BME280;9208;42.688;23.404;2023-05-16T00:21:03;95166.94;;;15.25;100.00
18167;BME280;9208;42.688;23.404;2023-05-16T00:23:29;95177.25;;;15.25;100.00
18167;BME280;9208;42.688;23.404;2023-05-16T00:25:55;95175.50;;;15.22;100.00
18167;BME280;9208;42.688;23.404;2023-05-16T00:28:20;95162.22;;;15.20;100.00
18167;BME280;9208;42.688;23.404;2023-05-16T00:30:46;95179.75;;;15.23;100.00
18167;BME280;9208;42.688;23.404;2023-05-16T00:33:12;95170.25;;;15.24;100.00
18167;BME280;9208;42.688;23.404;2023-05-16T00:35:37;95168.78;;;15.17;100.00
18167;BME280;9208;42.688;23.404;2023-05-16T00:38:02;95167.69;;;15.26;100.00
18167;BME280;9208;42.688;23.404;2023-05-16T00:40:28;95176.28;;;15.22;100.00
18167;BME280;9208;42.688;23.404;2023-05-16T00:42:53;95177.22;;;15.30;100.00
18167;BME280;9208;42.688;23.404;2023-05-16T00:45:19;95164.13;;;15.31;100.00
18167;BME280;9208;42.688;23.404;2023-05-16T00:47:44;95153.59;;;15.29;100.00
18167;BME280;9208;42.688;23.404;2023-05-16T00:50:10;95139.84;;;15.24;100.00
18167;BME280;9208;42.688;23.404;2023-05-16T00:52:36;95148.31;;;15.37;100.00
18167;BME280;9208;42.688;23.404;2023-05-16T00:55:02;95142.34;;;15.27;100.00
18167;BME280;9208;42.688;23.404;2023-05-16T00:57:28;95137.31;;;15.26;100.00
18167;BME280;9208;42.688;23.404;2023-05-16T00:59:54;95135.56;;;15.23;100.00
18167;BME280;9208;42.688;23.404;2023-05-16T01:02:20;95139.84;;;15.24;100.00
18167;BME280;9208;42.688;23.404;2023-05-16T01:04:46;95136.34;;;15.23;100.00
18167;BME280;9208;42.688;23.404;2023-05-16T01:07:12;95135.81;;;15.25;100.00
18167;BME280;9208;42.688;23.404;2023-05-16T01:09:38;95143.53;;;15.37;100.00
18167;BME280;9208;42.688;23.404;2023-05-16T01:26:14;95126.28;;;15.26;100.00
18167;BME280;9208;42.688;23.404;2023-05-16T01:28:41;95130.53;;;15.27;100.00
18167;BME280;9208;42.688;23.404;2023-05-16T01:31:07;95119.47;;;15.27;100.00
18167;BME280;9208;42.688;23.404;2023-05-16T01:33:33;95120.28;;;15.22;100.00
18167;BME280;9208;42.688;23.404;2023-05-16T01:36:05;95114.28;;;15.18;100.00
18167;BME280;9208;42.688;23.404;2023-05-16T01:38:38;95108.28;;;15.14;100.00
18167;BME280;9208;42.688;23.404;2023-05-16T01:41:24;95100.63;;;15.01;100.00
18167;BME280;9208;42.688;23.404;2023-05-16T01:43:58;95104.28;;;15.15;100.00
18167;BME280;9208;42.688;23.404;2023-05-16T01:46:26;95085.06;;;15.04;100.00
18167;BME280;9208;42.688;23.404;2023-05-16T01:51:32;95090.75;;;15.11;100.00
18167;BME280;9208;42.688;23.404;2023-05-16T01:54:05;95089.69;;;15.20;100.00
18167;BME280;9208;42.688;23.404;2023-05-16T01:56:33;95089.91;;;15.22;100.00
18167;BME280;9208;42.688;23.404;2023-05-16T01:59:01;95082.31;;;15.28;100.00
18167;BME280;9208;42.688;23.404;2023-05-16T02:01:28;95079.31;;;15.26;100.00
18167;BME280;9208;42.688;23.404;2023-05-16T02:03:54;95076.78;;;15.28;100.00
18167;BME280;9208;42.688;23.404;2023-05-16T02:06:21;95075.50;;;15.34;100.00
18167;BME280;9208;42.688;23.404;2023-05-16T02:08:46;95073.13;;;15.20;100.00
18167;BME280;9208;42.688;23.404;2023-05-16T02:11:13;95078.22;;;15.10;100.00
18167;BME280;9208;42.688;23.404;2023-05-16T02:13:38;95076.94;;;15.11;100.00
18167;BME280;9208;42.688;23.404;2023-05-16T02:16:04;95070.50;;;15.03;100.00
18167;BME280;9208;42.688;23.404;2023-05-16T02:18:29;95065.13;;;14.87;100.00
18167;BME280;9208;42.688;23.404;2023-05-16T02:20:55;95074.16;;;14.87;100.00
18167;BME280;9208;42.688;23.404;2023-05-16T02:23:20;95075.09;;;14.95;100.00
18167;BME280;9208;42.688;23.404;2023-05-16T02:25:46;95075.56;;;14.99;100.00
18167;BME280;9208;42.688;23.404;2023-05-16T02:28:11;95069.25;;;15.04;100.00
18167;BME280;9208;42.688;23.404;2023-05-16T02:30:37;95069.94;;;15.10;100.00
18167;BME280;9208;42.688;23.404;2023-05-16T02:33:02;95068.56;;;15.22;100.00
18167;BME280;9208;42.688;23.404;2023-05-16T02:35:28;95071.25;;;15.28;100.00
18167;BME280;9208;42.688;23.404;2023-05-16T02:37:53;95063.06;;;15.22;100.00
18167;BME280;9208;42.688;23.404;2023-05-16T02:40:20;95070.72;;;15.35;100.00
18167;BME280;9208;42.688;23.404;2023-05-16T02:42:45;95084.03;;;15.31;100.00
18167;BME280;9208;42.688;23.404;2023-05-16T02:45:10;95067.25;;;15.29;100.00
18167;BME280;9208;42.688;23.404;2023-05-16T02:47:36;95083.81;;;15.29;100.00
18167;BME280;9208;42.688;23.404;2023-05-16T02:50:02;95074.81;;;15.23;100.00
18167;BME280;9208;42.688;23.404;2023-05-16T02:52:28;95075.91;;;15.14;100.00
18167;BME280;9208;42.688;23.404;2023-05-16T02:54:54;95070.56;;;15.22;100.00
18167;BME280;9208;42.688;23.404;2023-05-16T02:57:20;95074.91;;;15.17;100.00
18167;BME280;9208;42.688;23.404;2023-05-16T02:59:45;95064.38;;;15.16;100.00
18167;BME280;9208;42.688;23.404;2023-05-16T03:02:10;95059.06;;;15.18;100.00
18167;BME280;9208;42.688;23.404;2023-05-16T03:04:36;95061.03;;;15.23;100.00
18167;BME280;9208;42.688;23.404;2023-05-16T03:07:01;95065.34;;;15.18;100.00
18167;BME280;9208;42.688;23.404;2023-05-16T03:09:27;95070.69;;;15.11;100.00
18167;BME280;9208;42.688;23.404;2023-05-16T03:11:52;95074.13;;;15.17;100.00
18167;BME280;9208;42.688;23.404;2023-05-16T03:14:18;95077.59;;;15.23;100.00
18167;BME280;9208;42.688;23.404;2023-05-16T03:16:43;95067.34;;;15.18;100.00
18167;BME280;9208;42.688;23.404;2023-05-16T03:19:09;95070.28;;;15.25;100.00
18167;BME280;9208;42.688;23.404;2023-05-16T03:21:35;95072.00;;;15.34;100.00
18167;BME280;9208;42.688;23.404;2023-05-16T03:24:03;95076.56;;;15.26;100.00
18167;BME280;9208;42.688;23.404;2023-05-16T03:26:29;95065.47;;;15.31;100.00
18167;BME280;9208;42.688;23.404;2023-05-16T03:28:54;95067.47;;;15.36;100.00
18167;BME280;9208;42.688;23.404;2023-05-16T03:31:20;95073.50;;;15.35;100.00
18167;BME280;9208;42.688;23.404;2023-05-16T03:33:45;95067.91;;;15.40;100.00
18167;BME280;9208;42.688;23.404;2023-05-16T03:36:11;95065.38;;;15.42;100.00
18167;BME280;9208;42.688;23.404;2023-05-16T03:38:36;95072.03;;;15.28;100.00
18167;BME280;9208;42.688;23.404;2023-05-16T03:41:02;95056.72;;;15.27;100.00
18167;BME280;9208;42.688;23.404;2023-05-16T03:43:28;95049.25;;;15.22;100.00
18167;BME280;9208;42.688;23.404;2023-05-16T03:45:53;95062.19;;;15.33;100.00
18167;BME280;9208;42.688;23.404;2023-05-16T03:48:19;95054.16;;;15.35;100.00
18167;BME280;9208;42.688;23.404;2023-05-16T03:50:44;95059.13;;;15.42;100.00
18167;BME280;9208;42.688;23.404;2023-05-16T03:53:10;95068.97;;;15.32;100.00
18167;BME280;9208;42.688;23.404;2023-05-16T03:55:36;95066.28;;;15.26;100.00
18167;BME280;9208;42.688;23.404;2023-05-16T03:58:01;95067.75;;;15.27;100.00
18167;BME280;9208;42.688;23.404;2023-05-16T04:00:27;95069.56;;;15.25;100.00
18167;BME280;9208;42.688;23.404;2023-05-16T04:02:52;95060.00;;;15.26;100.00
18167;BME280;9208;42.688;23.404;2023-05-16T04:05:18;95069.25;;;15.28;100.00
18167;BME280;9208;42.688;23.404;2023-05-16T04:07:43;95048.72;;;15.24;100.00
18167;BME280;9208;42.688;23.404;2023-05-16T04:10:09;95055.44;;;15.34;100.00
18167;BME280;9208;42.688;23.404;2023-05-16T04:12:35;95062.69;;;15.37;100.00
18167;BME280;9208;42.688;23.404;2023-05-16T04:15:05;95056.88;;;15.40;100.00
18167;BME280;9208;42.688;23.404;2023-05-16T04:17:31;95069.63;;;15.43;100.00
18167;BME280;9208;42.688;23.404;2023-05-16T04:19:57;95060.81;;;15.45;100.00
18167;BME280;9208;42.688;23.404;2023-05-16T04:22:22;95063.41;;;15.37;100.00
18167;BME280;9208;42.688;23.404;2023-05-16T04:24:48;95062.59;;;15.42;100.00
18167;BME280;9208;42.688;23.404;2023-05-16T04:27:14;95074.72;;;15.39;100.00
18167;BME280;9208;42.688;23.404;2023-05-16T04:29:39;95069.25;;;15.34;100.00
18167;BME280;9208;42.688;23.404;2023-05-16T04:32:05;95067.47;;;15.31;100.00
18167;BME280;9208;42.688;23.404;2023-05-16T04:34:32;95064.44;;;15.34;100.00
18167;BME280;9208;42.688;23.404;2023-05-16T04:36:58;95066.19;;;15.37;100.00
18167;BME280;9208;42.688;23.404;2023-05-16T04:39:24;95059.94;;;15.37;100.00
18167;BME280;9208;42.688;23.404;2023-05-16T04:41:50;95062.44;;;15.35;100.00
18167;BME280;9208;42.688;23.404;2023-05-16T04:44:16;95052.69;;;15.28;100.00
18167;BME280;9208;42.688;23.404;2023-05-16T04:46:41;95064.41;;;15.40;100.00
18167;BME280;9208;42.688;23.404;2023-05-16T04:49:07;95058.81;;;15.45;100.00
18167;BME280;9208;42.688;23.404;2023-05-16T04:51:32;95056.00;;;15.51;100.00
18167;BME280;9208;42.688;23.404;2023-05-16T04:53:58;95071.59;;;15.48;100.00
18167;BME280;9208;42.688;23.404;2023-05-16T04:56:24;95061.06;;;15.47;100.00
18167;BME280;9208;42.688;23.404;2023-05-16T04:58:50;95059.50;;;15.51;100.00
18167;BME280;9208;42.688;23.404;2023-05-16T05:01:16;95069.00;;;15.56;100.00
18167;BME280;9208;42.688;23.404;2023-05-16T05:03:42;95065.66;;;15.63;100.00
18167;BME280;9208;42.688;23.404;2023-05-16T05:06:07;95063.81;;;15.71;100.00
18167;BME280;9208;42.688;23.404;2023-05-16T05:08:33;95064.47;;;15.77;100.00
18167;BME280;9208;42.688;23.404;2023-05-16T05:10:58;95071.16;;;15.87;100.00
18167;BME280;9208;42.688;23.404;2023-05-16T05:13:25;95070.56;;;15.94;100.00
18167;BME280;9208;42.688;23.404;2023-05-16T05:15:50;95065.47;;;15.98;100.00
18167;BME280;9208;42.688;23.404;2023-05-16T05:18:16;95069.97;;;16.01;100.00
18167;BME280;9208;42.688;23.404;2023-05-16T05:20:42;95069.53;;;15.97;100.00
18167;BME280;9208;42.688;23.404;2023-05-16T05:23:08;95079.00;;;16.01;100.00
18167;BME280;9208;42.688;23.404;2023-05-16T05:25:34;95075.13;;;16.10;100.00
18167;BME280;9208;42.688;23.404;2023-05-16T05:28:02;95066.84;;;16.10;100.00
18167;BME280;9208;42.688;23.404;2023-05-16T05:30:28;95070.06;;;16.14;100.00
18167;BME280;9208;42.688;23.404;2023-05-16T05:32:53;95071.41;;;16.07;100.00
18167;BME280;9208;42.688;23.404;2023-05-16T05:35:19;95069.38;;;16.08;100.00
18167;BME280;9208;42.688;23.404;2023-05-16T05:37:45;95053.59;;;16.03;100.00
18167;BME280;9208;42.688;23.404;2023-05-16T05:40:10;95048.38;;;15.99;100.00
18167;BME280;9208;42.688;23.404;2023-05-16T05:42:36;95037.00;;;16.03;100.00
18167;BME280;9208;42.688;23.404;2023-05-16T05:45:02;95037.25;;;16.05;100.00
18167;BME280;9208;42.688;23.404;2023-05-16T05:47:27;95038.94;;;16.08;100.00
18167;BME280;9208;42.688;23.404;2023-05-16T05:49:53;95033.28;;;16.00;100.00
18167;BME280;9208;42.688;23.404;2023-05-16T05:52:19;95040.84;;;16.00;100.00
18167;BME280;9208;42.688;23.404;2023-05-16T05:54:45;95038.22;;;16.07;100.00
18167;BME280;9208;42.688;23.404;2023-05-16T05:57:10;95039.84;;;16.16;100.00
18167;BME280;9208;42.688;23.404;2023-05-16T05:59:35;95035.34;;;16.13;100.00
18167;BME280;9208;42.688;23.404;2023-05-16T06:02:01;95033.72;;;16.23;100.00
18167;BME280;9208;42.688;23.404;2023-05-16T06:04:27;95025.19;;;16.39;100.00
18167;BME280;9208;42.688;23.404;2023-05-16T06:06:53;95040.19;;;16.62;100.00
18167;BME280;9208;42.688;23.404;2023-05-16T06:09:20;95040.78;;;16.74;100.00
18167;BME280;9208;42.688;23.404;2023-05-16T06:11:45;95048.38;;;16.86;100.00
18167;BME280;9208;42.688;23.404;2023-05-16T06:14:11;95042.09;;;16.86;100.00
18167;BME280;9208;42.688;23.404;2023-05-16T06:16:36;95040.19;;;16.94;100.00
18167;BME280;9208;42.688;23.404;2023-05-16T06:19:03;95043.94;;;16.96;100.00
18167;BME280;9208;42.688;23.404;2023-05-16T06:21:28;95037.84;;;16.98;100.00
18167;BME280;9208;42.688;23.404;2023-05-16T06:23:54;95034.22;;;17.03;100.00
18167;BME280;9208;42.688;23.404;2023-05-16T06:26:19;95044.78;;;17.04;100.00
18167;BME280;9208;42.688;23.404;2023-05-16T06:28:46;95052.56;;;17.06;100.00
18167;BME280;9208;42.688;23.404;2023-05-16T06:31:12;95041.72;;;17.08;100.00
18167;BME280;9208;42.688;23.404;2023-05-16T06:33:37;95053.97;;;17.12;100.00
18167;BME280;9208;42.688;23.404;2023-05-16T06:36:03;95046.41;;;17.13;100.00
18167;BME280;9208;42.688;23.404;2023-05-16T06:38:29;95034.25;;;17.16;100.00
18167;BME280;9208;42.688;23.404;2023-05-16T06:40:54;95025.84;;;17.21;100.00
18167;BME280;9208;42.688;23.404;2023-05-16T06:43:22;95043.53;;;17.18;100.00
18167;BME280;9208;42.688;23.404;2023-05-16T06:45:48;95035.22;;;17.18;100.00
18167;BME280;9208;42.688;23.404;2023-05-16T06:48:14;95038.09;;;17.13;100.00
18167;BME280;9208;42.688;23.404;2023-05-16T06:50:40;95035.22;;;17.18;100.00
18167;BME280;9208;42.688;23.404;2023-05-16T06:53:05;95026.63;;;17.22;100.00
18167;BME280;9208;42.688;23.404;2023-05-16T06:55:34;95031.63;;;17.23;100.00
18167;BME280;9208;42.688;23.404;2023-05-16T06:58:00;95005.63;;;17.26;100.00
18167;BME280;9208;42.688;23.404;2023-05-16T07:00:25;95011.91;;;17.27;100.00
18167;BME280;9208;42.688;23.404;2023-05-16T07:02:51;95023.00;;;17.27;100.00
18167;BME280;9208;42.688;23.404;2023-05-16T07:05:16;95028.97;;;17.31;100.00
18167;BME280;9208;42.688;23.404;2023-05-16T07:07:42;95025.75;;;17.27;100.00
18167;BME280;9208;42.688;23.404;2023-05-16T07:10:07;95028.97;;;17.31;100.00
18167;BME280;9208;42.688;23.404;2023-05-16T07:12:34;95013.94;;;17.26;100.00
18167;BME280;9208;42.688;23.404;2023-05-16T07:15:01;95024.69;;;17.30;100.00
18167;BME280;9208;42.688;23.404;2023-05-16T07:17:27;95013.72;;;17.24;100.00
18167;BME280;9208;42.688;23.404;2023-05-16T07:19:56;95020.41;;;17.29;100.00
18167;BME280;9208;42.688;23.404;2023-05-16T07:22:21;95003.72;;;17.34;100.00
18167;BME280;9208;42.688;23.404;2023-05-16T07:24:46;94983.56;;;17.34;100.00
18167;BME280;9208;42.688;23.404;2023-05-16T07:27:12;94968.34;;;17.40;100.00
18167;BME280;9208;42.688;23.404;2023-05-16T07:29:37;94974.53;;;17.46;100.00
18167;BME280;9208;42.688;23.404;2023-05-16T07:32:03;94981.03;;;17.49;100.00
18167;BME280;9208;42.688;23.404;2023-05-16T07:34:29;94984.44;;;17.55;100.00
18167;BME280;9208;42.688;23.404;2023-05-16T07:36:54;94979.22;;;17.51;100.00
18167;BME280;9208;42.688;23.404;2023-05-16T07:39:20;94979.66;;;17.55;100.00
18167;BME280;9208;42.688;23.404;2023-05-16T07:41:46;94973.16;;;17.53;100.00
18167;BME280;9208;42.688;23.404;2023-05-16T07:44:11;94980.91;;;17.54;100.00
18167;BME280;9208;42.688;23.404;2023-05-16T07:46:37;94994.66;;;17.60;100.00
18167;BME280;9208;42.688;23.404;2023-05-16T07:49:02;95004.69;;;17.63;100.00
18167;BME280;9208;42.688;23.404;2023-05-16T07:51:28;95016.22;;;17.67;100.00
18167;BME280;9208;42.688;23.404;2023-05-16T07:53:54;94998.28;;;17.68;100.00
18167;BME280;9208;42.688;23.404;2023-05-16T07:56:19;94988.69;;;17.69;100.00
18167;BME280;9208;42.688;23.404;2023-05-16T07:58:45;94984.75;;;17.64;100.00
18167;BME280;9208;42.688;23.404;2023-05-16T08:01:13;94994.31;;;17.76;100.00
18167;BME280;9208;42.688;23.404;2023-05-16T08:03:38;95014.69;;;17.79;100.00
18167;BME280;9208;42.688;23.404;2023-05-16T08:06:04;95002.94;;;17.86;100.00
18167;BME280;9208;42.688;23.404;2023-05-16T08:08:29;94996.56;;;17.78;100.00
18167;BME280;9208;42.688;23.404;2023-05-16T08:10:55;94992.91;;;17.83;100.00
18167;BME280;9208;42.688;23.404;2023-05-16T08:13:20;94975.22;;;17.86;100.00
18167;BME280;9208;42.688;23.404;2023-05-16T08:15:46;94964.75;;;17.92;100.00
18167;BME280;9208;42.688;23.404;2023-05-16T08:18:12;94970.53;;;17.94;100.00
18167;BME280;9208;42.688;23.404;2023-05-16T08:20:39;94960.47;;;18.04;100.00
18167;BME280;9208;42.688;23.404;2023-05-16T08:23:06;94964.94;;;18.07;100.00
18167;BME280;9208;42.688;23.404;2023-05-16T08:25:31;94970.34;;;18.12;100.00
18167;BME280;9208;42.688;23.404;2023-05-16T08:27:57;94974.63;;;18.13;100.00
18167;BME280;9208;42.688;23.404;2023-05-16T08:30:26;94970.22;;;18.18;100.00
18167;BME280;9208;42.688;23.404;2023-05-16T08:32:52;94975.00;;;18.17;100.00
18167;BME280;9208;42.688;23.404;2023-05-16T08:35:17;94973.00;;;18.18;100.00
18167;BME280;9208;42.688;23.404;2023-05-16T08:37:42;94962.88;;;18.07;100.00
18167;BME280;9208;42.688;23.404;2023-05-16T08:40:11;94965.16;;;17.96;100.00
18167;BME280;9208;42.688;23.404;2023-05-16T08:42:38;94940.47;;;17.85;100.00
18167;BME280;9208;42.688;23.404;2023-05-16T08:45:08;94955.81;;;17.86;100.00
18167;BME280;9208;42.688;23.404;2023-05-16T08:47:35;94962.38;;;17.96;100.00
18167;BME280;9208;42.688;23.404;2023-05-16T08:50:08;94943.81;;;18.04;100.00
18167;BME280;9208;42.688;23.404;2023-05-16T08:52:36;94956.44;;;18.25;100.00
18167;BME280;9208;42.688;23.404;2023-05-16T08:55:03;94940.72;;;18.28;100.00
18167;BME280;9208;42.688;23.404;2023-05-16T08:57:30;94962.03;;;18.46;100.00
18167;BME280;9208;42.688;23.404;2023-05-16T08:59:57;94957.28;;;18.54;100.00
18167;BME280;9208;42.688;23.404;2023-05-16T09:02:23;94959.81;;;18.65;100.00
18167;BME280;9208;42.688;23.404;2023-05-16T09:04:48;94960.59;;;18.73;100.00
18167;BME280;9208;42.688;23.404;2023-05-16T09:07:14;94956.22;;;18.78;100.00
18167;BME280;9208;42.688;23.404;2023-05-16T09:09:41;94940.84;;;18.77;100.00
18167;BME280;9208;42.688;23.404;2023-05-16T09:12:07;94952.59;;;18.90;100.00
18167;BME280;9208;42.688;23.404;2023-05-16T09:14:32;94955.59;;;18.92;100.00
18167;BME280;9208;42.688;23.404;2023-05-16T09:17:05;94958.56;;;18.74;100.00
18167;BME280;9208;42.688;23.404;2023-05-16T09:19:41;94962.78;;;18.67;100.00
18167;BME280;9208;42.688;23.404;2023-05-16T09:22:11;94949.72;;;18.55;100.00
18167;BME280;9208;42.688;23.404;2023-05-16T09:24:42;94960.66;;;18.60;100.00
18167;BME280;9208;42.688;23.404;2023-05-16T09:27:12;94953.63;;;18.59;100.00
18167;BME280;9208;42.688;23.404;2023-05-16T09:29:42;94964.94;;;18.61;100.00
18167;BME280;9208;42.688;23.404;2023-05-16T09:32:12;94969.75;;;18.61;100.00
18167;BME280;9208;42.688;23.404;2023-05-16T09:34:48;94963.38;;;18.52;100.00
18167;BME280;9208;42.688;23.404;2023-05-16T09:37:17;94944.75;;;18.40;100.00
18167;BME280;9208;42.688;23.404;2023-05-16T09:39:47;94968.88;;;18.45;100.00
18167;BME280;9208;42.688;23.404;2023-05-16T09:42:17;94974.00;;;18.41;100.00
18167;BME280;9208;42.688;23.404;2023-05-16T09:44:51;94964.94;;;18.41;100.00
18167;BME280;9208;42.688;23.404;2023-05-16T09:47:18;94959.41;;;18.41;100.00
18167;BME280;9208;42.688;23.404;2023-05-16T09:49:45;94953.63;;;18.38;100.00
18167;BME280;9208;42.688;23.404;2023-05-16T09:52:12;94947.44;;;18.32;100.00
18167;BME280;9208;42.688;23.404;2023-05-16T09:54:37;94938.59;;;18.34;100.00
18167;BME280;9208;42.688;23.404;2023-05-16T09:57:03;94954.78;;;18.43;100.00
18167;BME280;9208;42.688;23.404;2023-05-16T09:59:29;94961.34;;;18.53;100.00
18167;BME280;9208;42.688;23.404;2023-05-16T10:01:58;94942.03;;;18.68;100.00
18167;BME280;9208;42.688;23.404;2023-05-16T10:04:24;94940.69;;;18.82;100.00
18167;BME280;9208;42.688;23.404;2023-05-16T10:06:50;94944.13;;;18.96;100.00
18167;BME280;9208;42.688;23.404;2023-05-16T10:09:19;94959.66;;;19.19;100.00
18167;BME280;9208;42.688;23.404;2023-05-16T10:11:47;94948.41;;;19.25;100.00
18167;BME280;9208;42.688;23.404;2023-05-16T10:14:16;94951.13;;;19.45;100.00
18167;BME280;9208;42.688;23.404;2023-05-16T10:16:43;94960.06;;;19.51;100.00
18167;BME280;9208;42.688;23.404;2023-05-16T10:19:16;94957.72;;;19.63;100.00
18167;BME280;9208;42.688;23.404;2023-05-16T10:21:49;94958.69;;;19.73;100.00
18167;BME280;9208;42.688;23.404;2023-05-16T10:24:23;94968.91;;;19.78;100.00
18167;BME280;9208;42.688;23.404;2023-05-16T10:26:51;94952.59;;;19.74;100.00
18167;BME280;9208;42.688;23.404;2023-05-16T10:29:18;94948.91;;;19.87;100.00
18167;BME280;9208;42.688;23.404;2023-05-16T10:31:45;94951.34;;;19.90;100.00
18167;BME280;9208;42.688;23.404;2023-05-16T10:34:11;94940.41;;;19.85;100.00
18167;BME280;9208;42.688;23.404;2023-05-16T10:36:39;94951.16;;;19.88;100.00
18167;BME280;9208;42.688;23.404;2023-05-16T10:39:06;94948.56;;;19.90;100.00
18167;BME280;9208;42.688;23.404;2023-05-16T10:41:32;94938.56;;;19.95;100.00
18167;BME280;9208;42.688;23.404;2023-05-16T10:43:58;94932.81;;;19.93;100.00
18167;BME280;9208;42.688;23.404;2023-05-16T10:46:26;94918.88;;;19.93;100.00
18167;BME280;9208;42.688;23.404;2023-05-16T10:48:53;94898.47;;;19.90;100.00
18167;BME280;9208;42.688;23.404;2023-05-16T10:53:52;94906.66;;;19.96;100.00
18167;BME280;9208;42.688;23.404;2023-05-16T10:56:22;94900.56;;;19.97;100.00
18167;BME280;9208;42.688;23.404;2023-05-16T10:58:48;94908.75;;;20.03;100.00
18167;BME280;9208;42.688;23.404;2023-05-16T11:06:22;94903.06;;;20.16;100.00
18167;BME280;9208;42.688;23.404;2023-05-16T11:09:24;94903.97;;;20.18;100.00
18167;BME280;9208;42.688;23.404;2023-05-16T11:14:23;94908.25;;;20.34;100.00
18167;BME280;9208;42.688;23.404;2023-05-16T11:17:00;94904.00;;;20.41;100.00
18167;BME280;9208;42.688;23.404;2023-05-16T11:27:28;94894.53;;;20.51;100.00
18167;BME280;9208;42.688;23.404;2023-05-16T11:29:57;94914.59;;;20.50;100.00
18167;BME280;9208;42.688;23.404;2023-05-16T11:32:23;94909.94;;;20.37;100.00
18167;BME280;9208;42.688;23.404;2023-05-16T11:34:50;94902.31;;;20.38;100.00
18167;BME280;9208;42.688;23.404;2023-05-16T11:37:17;94884.31;;;20.31;100.00
18167;BME280;9208;42.688;23.404;2023-05-16T11:39:44;94906.78;;;20.41;100.00
18167;BME280;9208;42.688;23.404;2023-05-16T11:42:09;94903.63;;;20.44;100.00
18167;BME280;9208;42.688;23.404;2023-05-16T11:44:35;94907.16;;;20.45;100.00
18167;BME280;9208;42.688;23.404;2023-05-16T11:47:00;94906.06;;;20.48;100.00
18167;BME280;9208;42.688;23.404;2023-05-16T11:49:27;94900.84;;;20.44;100.00
18167;BME280;9208;42.688;23.404;2023-05-16T11:51:55;94904.75;;;20.41;100.00
18167;BME280;9208;42.688;23.404;2023-05-16T11:54:22;94911.03;;;20.42;100.00
18167;BME280;9208;42.688;23.404;2023-05-16T11:56:49;94909.19;;;20.44;100.00
18167;BME280;9208;42.688;23.404;2023-05-16T11:59:16;94902.16;;;20.43;100.00
18167;BME280;9208;42.688;23.404;2023-05-16T12:01:42;94898.97;;;20.39;100.00
18167;BME280;9208;42.688;23.404;2023-05-16T12:04:12;94898.06;;;20.44;100.00
18167;BME280;9208;42.688;23.404;2023-05-16T12:06:38;94885.06;;;20.39;100.00
18167;BME280;9208;42.688;23.404;2023-05-16T12:09:05;94876.72;;;20.39;100.00
18167;BME280;9208;42.688;23.404;2023-05-16T12:11:43;94876.72;;;20.47;100.00
18167;BME280;9208;42.688;23.404;2023-05-16T12:14:10;94872.09;;;20.49;100.00
18167;BME280;9208;42.688;23.404;2023-05-16T12:16:37;94864.09;;;20.53;100.00
18167;BME280;9208;42.688;23.404;2023-05-16T12:19:04;94865.59;;;20.54;100.00
18167;BME280;9208;42.688;23.404;2023-05-16T12:21:34;94869.28;;;20.72;100.00
18167;BME280;9208;42.688;23.404;2023-05-16T12:24:00;94860.38;;;20.73;100.00
18167;BME280;9208;42.688;23.404;2023-05-16T12:26:26;94878.22;;;20.85;100.00
18167;BME280;9208;42.688;23.404;2023-05-16T12:28:56;94856.09;;;20.87;100.00
18167;BME280;9208;42.688;23.404;2023-05-16T12:31:25;94847.75;;;20.80;100.00
18167;BME280;9208;42.688;23.404;2023-05-16T12:33:55;94852.94;;;20.91;100.00
18167;BME280;9208;42.688;23.404;2023-05-16T12:36:21;94850.72;;;20.97;100.00
18167;BME280;9208;42.688;23.404;2023-05-16T12:38:48;94851.06;;;21.01;100.00
18167;BME280;9208;42.688;23.404;2023-05-16T12:41:17;94860.19;;;21.01;100.00
18167;BME280;9208;42.688;23.404;2023-05-16T12:43:43;94855.00;;;20.98;100.00
18167;BME280;9208;42.688;23.404;2023-05-16T12:46:09;94852.59;;;20.94;100.00
18167;BME280;9208;42.688;23.404;2023-05-16T12:48:39;94865.94;;;21.03;100.00
18167;BME280;9208;42.688;23.404;2023-05-16T12:51:16;94865.94;;;21.03;100.00
18167;BME280;9208;42.688;23.404;2023-05-16T12:53:48;94870.41;;;20.99;100.00
18167;BME280;9208;42.688;23.404;2023-05-16T12:56:15;94872.97;;;20.89;100.00
18167;BME280;9208;42.688;23.404;2023-05-16T12:58:41;94881.34;;;20.89;100.00
18167;BME280;9208;42.688;23.404;2023-05-16T13:01:07;94877.63;;;20.79;100.00
18167;BME280;9208;42.688;23.404;2023-05-16T13:03:33;94847.03;;;20.57;100.00
18167;BME280;9208;42.688;23.404;2023-05-16T13:05:59;94885.28;;;20.79;100.00
18167;BME280;9208;42.688;23.404;2023-05-16T13:08:26;94885.47;;;20.73;100.00
18167;BME280;9208;42.688;23.404;2023-05-16T13:10:52;94878.56;;;20.74;100.00
18167;BME280;9208;42.688;23.404;2023-05-16T13:13:17;94862.03;;;20.69;100.00
18167;BME280;9208;42.688;23.404;2023-05-16T13:15:46;94859.81;;;20.52;100.00
18167;BME280;9208;42.688;23.404;2023-05-16T13:18:12;94842.19;;;20.42;100.00
18167;BME280;9208;42.688;23.404;2023-05-16T13:20:38;94856.88;;;20.50;100.00
18167;BME280;9208;42.688;23.404;2023-05-16T13:23:03;94855.19;;;20.47;100.00